Time;durP1;ratioP1;P1;durP2;ratioP2;P2;SDS_P1;SDS_P2;PMS_P1;PMS_P2;Temp;Humidity;BMP_temperature;BMP_pressure;BME280_temperature;BME280_humidity;BME280_pressure;Samples;Min_cycle;Max_cycle;Signal;HPM_P1;HPM_P2
2022/08/22 00:01:09;;;;;;;6.53;5.13;;;21.60;99.90;;;;;;5079417;28;20452;-93
2022/08/22 00:03:35;;;;;;;7.43;5.43;;;21.50;99.90;;;;;;5081392;28;20432;-92
2022/08/22 00:06:17;;;;;;;8.43;6.30;;;21.50;99.90;;;;;;5080885;28;20440;-93
2022/08/22 00:09:23;;;;;;;8.10;6.20;;;21.50;99.90;;;;;;5081335;28;20184;-93
2022/08/22 00:12:09;;;;;;;7.63;5.80;;;21.50;99.90;;;;;;5087622;28;20401;-93
2022/08/22 00:15:18;;;;;;;6.37;5.23;;;21.50;99.90;;;;;;5087453;28;20472;-92
2022/08/22 00:17:59;;;;;;;9.63;5.60;;;21.50;99.90;;;;;;5038419;28;20419;-92
2022/08/22 00:20:45;;;;;;;7.43;5.33;;;21.50;99.90;;;;;;5055174;28;20457;-94
2022/08/22 00:23:20;;;;;;;7.27;6.00;;;21.50;99.90;;;;;;5063593;28;20770;-93
2022/08/22 00:25:49;;;;;;;8.07;5.97;;;21.50;99.90;;;;;;5082975;28;20449;-93
2022/08/22 00:28:19;;;;;;;6.63;5.27;;;21.50;99.90;;;;;;5080971;28;20420;-92
2022/08/22 00:30:51;;;;;;;8.70;6.60;;;21.50;99.90;;;;;;5080332;28;21004;-95
2022/08/22 00:33:54;;;;;;;9.63;7.03;;;21.40;99.90;;;;;;5079982;28;20442;-94
2022/08/22 00:36:37;;;;;;;8.83;5.50;;;21.40;99.90;;;;;;5080431;28;20499;-94
2022/08/22 00:39:15;;;;;;;8.03;5.80;;;21.40;99.90;;;;;;5080309;28;20459;-92
2022/08/22 00:42:05;;;;;;;8.57;6.20;;;21.40;99.90;;;;;;5080942;28;20420;-93
2022/08/22 00:45:10;;;;;;;7.80;5.20;;;21.40;99.90;;;;;;5102938;28;20999;-93
2022/08/22 00:47:50;;;;;;;8.93;6.03;;;21.40;99.90;;;;;;5037387;28;20505;-93
2022/08/22 00:50:38;;;;;;;10.60;6.43;;;21.40;99.90;;;;;;5091192;28;20495;-91
2022/08/22 00:53:43;;;;;;;7.57;6.03;;;21.30;99.90;;;;;;5078644;28;20417;-93
2022/08/22 00:56:38;;;;;;;6.77;5.93;;;21.30;99.90;;;;;;5079272;28;20505;-94
2022/08/22 00:59:23;;;;;;;8.43;5.60;;;21.30;99.90;;;;;;5079579;28;20433;-94
2022/08/22 01:02:01;;;;;;;9.60;6.27;;;21.30;99.90;;;;;;5078558;28;20424;-93
2022/08/22 01:04:30;;;;;;;7.67;6.00;;;21.30;99.90;;;;;;5079371;28;20540;-94
2022/08/22 01:07:07;;;;;;;11.30;6.63;;;21.20;99.90;;;;;;5079228;28;20914;-93
2022/08/22 01:10:04;;;;;;;12.13;6.40;;;21.20;99.90;;;;;;5079553;28;20480;-95
2022/08/22 01:12:29;;;;;;;13.20;5.63;;;21.20;99.90;;;;;;5082565;28;20413;-92
2022/08/22 01:15:07;;;;;;;9.90;6.70;;;21.20;99.90;;;;;;5077481;28;20456;-92
2022/08/22 01:17:33;;;;;;;9.30;6.70;;;21.20;99.90;;;;;;5077356;28;20172;-93
2022/08/22 01:20:23;;;;;;;8.37;6.07;;;21.20;99.90;;;;;;5079540;28;20447;-94
2022/08/22 01:23:15;;;;;;;7.43;6.20;;;21.10;99.90;;;;;;5077658;28;20263;-94
2022/08/22 01:26:29;;;;;;;8.13;5.60;;;21.10;99.90;;;;;;5077901;28;20453;-94
2022/08/22 01:29:34;;;;;;;9.33;5.80;;;21.10;99.90;;;;;;5077442;28;20453;-94
2022/08/22 01:32:23;;;;;;;9.50;6.87;;;21.10;99.90;;;;;;5057308;28;20901;-92
2022/08/22 01:35:14;;;;;;;8.07;6.00;;;21.10;99.90;;;;;;5078674;28;20530;-92
2022/08/22 01:38:05;;;;;;;8.83;6.53;;;21.10;99.90;;;;;;5077675;28;20417;-92
2022/08/22 01:41:02;;;;;;;9.60;6.73;;;21.10;99.90;;;;;;5078333;28;20452;-94
2022/08/22 01:43:31;;;;;;;7.80;5.37;;;21.10;99.90;;;;;;5078580;28;20435;-94
2022/08/22 01:46:27;;;;;;;11.40;7.57;;;21.10;99.90;;;;;;5078616;28;20460;-93
2022/08/22 01:49:17;;;;;;;10.43;7.27;;;21.10;99.90;;;;;;5079136;28;20441;-93
2022/08/22 01:52:31;;;;;;;13.80;8.30;;;21.10;99.90;;;;;;5081945;28;20448;-93
2022/08/22 01:55:05;;;;;;;13.43;7.30;;;21.10;99.90;;;;;;5077022;28;20469;-93
2022/08/22 01:57:31;;;;;;;11.33;7.97;;;21.10;99.90;;;;;;5077212;28;20458;-92
2022/08/22 02:00:02;;;;;;;12.57;8.67;;;21.20;99.90;;;;;;5077231;28;20453;-94
2022/08/22 02:02:37;;;;;;;12.20;8.00;;;21.20;99.90;;;;;;5077601;28;20176;-94
2022/08/22 02:05:20;;;;;;;9.60;7.07;;;21.20;99.90;;;;;;5079158;28;20460;-94
2022/08/22 02:08:02;;;;;;;11.10;7.83;;;21.20;99.90;;;;;;5079295;28;20421;-94
2022/08/22 02:11:06;;;;;;;11.37;7.10;;;21.20;99.90;;;;;;5078610;28;20481;-93
2022/08/22 02:14:01;;;;;;;16.20;8.63;;;21.20;99.90;;;;;;5078826;28;20425;-94
2022/08/22 02:16:41;;;;;;;11.57;8.03;;;21.10;99.90;;;;;;5079607;28;20429;-92
2022/08/22 02:19:37;;;;;;;12.50;8.50;;;21.10;99.90;;;;;;5079208;28;20429;-93
2022/08/22 02:22:41;;;;;;;11.77;8.40;;;21.10;99.90;;;;;;5082159;28;20421;-94
2022/08/22 02:25:12;;;;;;;12.10;8.50;;;21.10;99.90;;;;;;5078355;28;20448;-92
2022/08/22 02:27:59;;;;;;;12.20;8.10;;;21.10;99.90;;;;;;5079216;28;20405;-91
2022/08/22 02:30:47;;;;;;;13.53;7.63;;;21.10;99.90;;;;;;5077063;28;20504;-95
2022/08/22 02:33:56;;;;;;;12.63;9.03;;;21.10;99.90;;;;;;5077184;28;20405;-94
2022/08/22 02:36:28;;;;;;;12.77;8.60;;;21.10;99.90;;;;;;5090409;28;20432;-94
2022/08/22 02:39:20;;;;;;;12.23;8.33;;;21.00;99.90;;;;;;5079041;28;20453;-94
2022/08/22 02:41:48;;;;;;;12.63;7.27;;;21.00;99.90;;;;;;5078055;28;20803;-94
2022/08/22 02:44:35;;;;;;;11.00;6.43;;;21.00;99.90;;;;;;5078687;28;20539;-94
2022/08/22 02:47:09;;;;;;;10.73;6.70;;;21.00;99.90;;;;;;5105967;28;20469;-93
2022/08/22 02:49:57;;;;;;;7.80;5.27;;;21.00;99.90;;;;;;5077884;28;21023;-93
2022/08/22 02:52:38;;;;;;;7.03;5.17;;;21.00;99.90;;;;;;5076636;28;20465;-92
2022/08/22 02:55:17;;;;;;;7.53;5.20;;;21.00;99.90;;;;;;5076593;28;20577;-94
2022/08/22 02:58:01;;;;;;;7.93;5.17;;;21.00;99.90;;;;;;5078116;28;20465;-94
2022/08/22 03:00:40;;;;;;;5.50;4.03;;;21.00;99.90;;;;;;5098515;28;20531;-95
2022/08/22 03:03:24;;;;;;;9.07;4.87;;;21.00;99.90;;;;;;5080160;28;20401;-93
2022/08/22 03:06:17;;;;;;;5.63;4.50;;;20.90;99.90;;;;;;5080112;28;20471;-94
2022/08/22 03:09:17;;;;;;;5.67;3.93;;;20.90;99.90;;;;;;5079637;28;20424;-94
2022/08/22 03:11:48;;;;;;;5.30;4.30;;;20.90;99.90;;;;;;5082153;28;20436;-94
2022/08/22 03:14:13;;;;;;;5.20;3.77;;;20.90;99.90;;;;;;5081628;28;20969;-92
2022/08/22 03:16:48;;;;;;;4.57;3.93;;;20.90;99.90;;;;;;5082328;28;20413;-94
2022/08/22 03:19:44;;;;;;;6.00;4.50;;;20.90;99.90;;;;;;5086368;28;20592;-94
2022/08/22 03:22:47;;;;;;;5.43;4.23;;;20.90;99.90;;;;;;5079636;28;20418;-93
2022/08/22 03:25:32;;;;;;;6.30;4.90;;;20.90;99.90;;;;;;5098219;28;20482;-92
2022/08/22 03:28:43;;;;;;;5.60;3.93;;;21.00;99.90;;;;;;5079371;28;20405;-94
2022/08/22 03:31:16;;;;;;;5.03;4.50;;;21.00;99.90;;;;;;5077109;28;20487;-92
2022/08/22 03:33:43;;;;;;;4.20;3.80;;;21.00;99.90;;;;;;5079663;28;20401;-93
2022/08/22 03:36:24;;;;;;;6.97;3.70;;;21.00;99.90;;;;;;5079482;28;20424;-93
2022/08/22 03:39:12;;;;;;;6.00;4.47;;;21.10;99.90;;;;;;5079321;28;20413;-92
2022/08/22 03:42:11;;;;;;;5.90;4.03;;;21.10;99.90;;;;;;5079595;28;20420;-92
2022/08/22 03:44:58;;;;;;;5.33;4.17;;;21.10;99.90;;;;;;5073818;28;20536;-92
2022/08/22 03:47:59;;;;;;;6.43;4.47;;;21.10;99.90;;;;;;5081542;28;20488;-93
2022/08/22 03:51:15;;;;;;;5.87;3.93;;;21.10;99.90;;;;;;5087705;28;20468;-93
2022/08/22 03:53:53;;;;;;;6.43;4.70;;;21.00;99.90;;;;;;5067578;28;20418;-93
2022/08/22 03:56:24;;;;;;;7.57;5.03;;;21.00;99.90;;;;;;5066716;28;20422;-94
2022/08/22 03:59:08;;;;;;;6.87;5.10;;;21.00;99.90;;;;;;5083956;28;20461;-92
2022/08/22 04:01:51;;;;;;;8.00;5.33;;;21.00;99.90;;;;;;5078873;28;20413;-92
2022/08/22 04:04:34;;;;;;;6.93;5.10;;;21.00;99.90;;;;;;5077933;28;20453;-93
2022/08/22 04:07:06;;;;;;;6.63;5.10;;;20.90;99.90;;;;;;5079964;28;20428;-92
2022/08/22 04:10:10;;;;;;;20.90;14.33;;;20.90;99.90;;;;;;5079866;28;20571;-92
2022/08/22 04:13:16;;;;;;;7.00;5.47;;;20.90;99.90;;;;;;5080495;28;20423;-92
2022/08/22 04:16:00;;;;;;;5.70;4.80;;;20.90;99.90;;;;;;5060910;28;20454;-93
2022/08/22 04:18:56;;;;;;;5.93;4.30;;;20.90;99.90;;;;;;5081381;28;20423;-93
2022/08/22 04:21:34;;;;;;;6.50;4.80;;;20.90;99.90;;;;;;5080034;28;20918;-94
2022/08/22 04:24:44;;;;;;;7.43;5.33;;;20.90;99.90;;;;;;5086568;28;20424;-92
2022/08/22 04:27:48;;;;;;;6.63;4.73;;;20.90;99.90;;;;;;5072362;28;20416;-94
2022/08/22 04:30:42;;;;;;;4.70;3.00;;;20.80;99.90;;;;;;5078342;28;20491;-93
2022/08/22 04:33:23;;;;;;;5.27;3.80;;;20.80;99.90;;;;;;5078271;28;21009;-91
2022/08/22 04:36:16;;;;;;;6.00;4.20;;;20.80;99.90;;;;;;5078337;28;20457;-93
2022/08/22 04:39:05;;;;;;;6.87;4.13;;;20.80;99.90;;;;;;5078618;28;20763;-94
2022/08/22 04:41:52;;;;;;;5.57;3.90;;;20.80;99.90;;;;;;5079214;28;20519;-92
2022/08/22 04:44:26;;;;;;;5.07;3.70;;;20.80;99.90;;;;;;5085623;28;20444;-92
2022/08/22 04:47:02;;;;;;;7.53;4.80;;;20.80;99.90;;;;;;5079827;28;20417;-93
2022/08/22 04:49:46;;;;;;;5.20;4.13;;;20.80;99.90;;;;;;5078016;28;20471;-92
2022/08/22 04:52:45;;;;;;;9.80;4.20;;;20.90;99.90;;;;;;5081633;28;20413;-92
2022/08/22 04:55:27;;;;;;;5.57;4.10;;;20.90;99.90;;;;;;5078689;28;20492;-93
2022/08/22 04:58:00;;;;;;;5.83;4.50;;;21.00;99.90;;;;;;5096120;28;20457;-92
2022/08/22 05:00:38;;;;;;;5.70;4.20;;;21.00;99.90;;;;;;5078488;28;20445;-94
2022/08/22 05:03:13;;;;;;;5.13;4.00;;;21.00;99.90;;;;;;5076431;28;20825;-94
2022/08/22 05:05:41;;;;;;;6.80;4.70;;;21.00;99.90;;;;;;5078340;28;20471;-93
2022/08/22 05:08:11;;;;;;;4.80;3.53;;;21.00;99.90;;;;;;5096134;28;20425;-94
2022/08/22 05:10:45;;;;;;;5.20;4.13;;;21.00;99.90;;;;;;5077665;28;20479;-92
2022/08/22 05:13:29;;;;;;;4.07;3.40;;;21.00;99.90;;;;;;5078446;28;20428;-94
2022/08/22 05:16:02;;;;;;;4.73;3.40;;;21.00;99.90;;;;;;5078049;28;20448;-92
2022/08/22 05:18:38;;;;;;;5.43;3.50;;;21.00;99.90;;;;;;5085063;28;20405;-93
2022/08/22 05:21:06;;;;;;;4.37;3.00;;;21.00;99.90;;;;;;5078941;28;20551;-94
2022/08/22 05:23:47;;;;;;;5.67;3.03;;;21.00;99.90;;;;;;5077569;28;20434;-94
2022/08/22 05:26:14;;;;;;;5.53;3.83;;;21.00;99.90;;;;;;5077768;28;20455;-93
2022/08/22 05:28:45;;;;;;;8.03;3.20;;;21.00;99.90;;;;;;5076526;28;20419;-93
2022/08/22 05:31:18;;;;;;;4.57;3.20;;;21.00;99.90;;;;;;5075311;28;20465;-93
2022/08/22 05:33:49;;;;;;;4.13;3.17;;;21.00;99.90;;;;;;5093086;28;20398;-93
2022/08/22 05:36:26;;;;;;;5.50;3.03;;;21.00;99.90;;;;;;5092997;28;20429;-92
2022/08/22 05:39:30;;;;;;;8.20;2.73;;;21.00;99.90;;;;;;5076001;28;20478;-93
2022/08/22 05:42:01;;;;;;;3.97;2.60;;;21.00;99.90;;;;;;5089579;28;20413;-93
2022/08/22 05:44:31;;;;;;;3.53;2.60;;;21.00;99.90;;;;;;5075769;28;20448;-94
2022/08/22 05:47:21;;;;;;;3.30;2.30;;;21.00;99.90;;;;;;5078246;28;20397;-92
2022/08/22 05:50:07;;;;;;;3.80;2.90;;;21.00;99.90;;;;;;5079483;28;21079;-92
2022/08/22 05:52:48;;;;;;;3.33;2.43;;;21.00;99.90;;;;;;5060174;28;20464;-92
2022/08/22 05:55:29;;;;;;;4.00;2.90;;;21.00;99.90;;;;;;5075451;28;20457;-94
2022/08/22 05:58:29;;;;;;;4.07;2.80;;;21.10;99.90;;;;;;5086038;28;20528;-93
2022/08/22 06:01:41;;;;;;;3.40;2.70;;;21.10;99.90;;;;;;5095264;28;20952;-93
2022/08/22 06:04:18;;;;;;;2.87;2.27;;;21.20;99.90;;;;;;5026632;28;20442;-93
2022/08/22 06:07:27;;;;;;;3.33;2.23;;;21.20;99.90;;;;;;5050138;28;20823;-94
2022/08/22 06:10:23;;;;;;;3.23;2.20;;;21.20;99.90;;;;;;5070905;28;20629;-94
2022/08/22 06:12:55;;;;;;;2.73;2.47;;;21.20;99.90;;;;;;5085661;28;20432;-94
2022/08/22 06:16:10;;;;;;;2.87;2.47;;;21.20;99.90;;;;;;5079033;28;20481;-94
2022/08/22 06:18:38;;;;;;;2.50;2.30;;;21.20;99.90;;;;;;5040942;28;20487;-94
2022/08/22 06:21:15;;;;;;;2.17;1.97;;;21.30;99.90;;;;;;5068285;28;20451;-94
2022/08/22 06:23:51;;;;;;;5.93;3.97;;;21.30;99.90;;;;;;5070154;28;20492;-95
2022/08/22 06:26:18;;;;;;;2.97;2.33;;;21.30;99.90;;;;;;5070263;28;20428;-94
2022/08/22 06:28:48;;;;;;;2.73;2.37;;;21.30;99.90;;;;;;5087468;28;20997;-93
2022/08/22 06:31:45;;;;;;;3.23;2.87;;;21.30;99.90;;;;;;5076614;28;20981;-92
2022/08/22 06:34:25;;;;;;;2.93;2.60;;;21.30;99.90;;;;;;5076157;28;20463;-92
2022/08/22 06:36:53;;;;;;;4.07;3.53;;;21.30;99.90;;;;;;5074321;28;20449;-94
2022/08/22 06:39:32;;;;;;;5.00;3.20;;;21.30;99.90;;;;;;5084804;28;20448;-92
2022/08/22 06:42:07;;;;;;;6.67;3.30;;;21.30;99.90;;;;;;5104458;28;20421;-94
2022/08/22 06:44:35;;;;;;;4.17;3.47;;;21.30;99.90;;;;;;5079606;28;20451;-93
2022/08/22 06:47:06;;;;;;;7.03;3.47;;;21.30;99.90;;;;;;5081188;28;20425;-94
2022/08/22 06:49:35;;;;;;;5.73;3.63;;;21.40;99.90;;;;;;5085443;28;20524;-92
2022/08/22 06:52:13;;;;;;;3.40;2.67;;;21.40;99.90;;;;;;5099944;28;20428;-93
2022/08/22 06:54:46;;;;;;;5.93;3.13;;;21.40;99.90;;;;;;5079642;28;20455;-93
2022/08/22 06:57:31;;;;;;;3.90;3.30;;;21.40;99.90;;;;;;5079769;28;20886;-92
2022/08/22 07:00:00;;;;;;;5.00;3.40;;;21.30;99.90;;;;;;5075108;28;20495;-93
2022/08/22 07:02:33;;;;;;;6.20;3.83;;;21.30;99.90;;;;;;5080608;28;20409;-93
2022/08/22 07:04:59;;;;;;;3.27;2.97;;;21.30;99.90;;;;;;5084541;28;20474;-93
2022/08/22 07:07:27;;;;;;;5.07;2.67;;;21.30;99.90;;;;;;5082529;28;20441;-92
2022/08/22 07:09:55;;;;;;;3.40;2.70;;;21.30;99.90;;;;;;5085775;28;20472;-92
2022/08/22 07:12:29;;;;;;;3.40;2.70;;;21.30;99.90;;;;;;5076759;28;20531;-92
2022/08/22 07:15:10;;;;;;;3.40;2.50;;;21.30;99.90;;;;;;5076452;28;20448;-93
2022/08/22 07:17:45;;;;;;;3.90;2.90;;;21.30;99.90;;;;;;5078391;28;20437;-93
2022/08/22 07:20:35;;;;;;;3.83;2.80;;;21.30;99.90;;;;;;5078098;28;20452;-93
2022/08/22 07:23:13;;;;;;;3.47;3.17;;;21.30;99.90;;;;;;5080030;28;20458;-92
2022/08/22 07:25:50;;;;;;;4.57;2.97;;;21.30;99.90;;;;;;5082360;28;20989;-93
2022/08/22 07:28:22;;;;;;;2.90;2.57;;;21.30;99.90;;;;;;5078160;28;20437;-92
2022/08/22 07:31:20;;;;;;;2.97;2.03;;;21.40;99.90;;;;;;5076669;28;20468;-92
2022/08/22 07:33:51;;;;;;;2.63;2.33;;;21.40;99.90;;;;;;5079514;28;20425;-92
2022/08/22 07:36:21;;;;;;;4.33;3.00;;;21.40;99.90;;;;;;5077486;28;20486;-93
2022/08/22 07:39:14;;;;;;;3.43;2.30;;;21.50;99.90;;;;;;5078679;28;20952;-93
2022/08/22 07:42:16;;;;;;;6.23;2.20;;;21.50;99.90;;;;;;5074480;28;20437;-94
2022/08/22 07:44:55;;;;;;;3.00;2.10;;;21.50;99.90;;;;;;5035798;28;20510;-93
2022/08/22 07:47:43;;;;;;;3.27;2.50;;;21.50;99.90;;;;;;5085738;28;20468;-93
2022/08/22 07:50:14;;;;;;;2.10;1.73;;;21.50;99.90;;;;;;5079536;28;20481;-92
2022/08/22 07:52:43;;;;;;;2.87;2.30;;;21.50;99.90;;;;;;5077109;28;20485;-94
2022/08/22 07:55:22;;;;;;;311.60;152.77;;;21.50;99.90;;;;;;5098798;28;20506;-92
2022/08/22 07:58:03;;;;;;;14.17;9.50;;;21.50;99.90;;;;;;5069914;28;20587;-93
2022/08/22 08:00:30;;;;;;;3.23;2.93;;;21.50;99.90;;;;;;5071423;28;20800;-93
2022/08/22 08:03:00;;;;;;;3.80;2.97;;;21.50;99.90;;;;;;5076665;28;20421;-92
2022/08/22 08:05:31;;;;;;;3.50;3.20;;;21.50;99.90;;;;;;5077887;28;20515;-93
2022/08/22 08:07:58;;;;;;;2.67;2.47;;;21.50;99.90;;;;;;5076527;28;20433;-94
2022/08/22 08:10:35;;;;;;;2.53;2.13;;;21.50;99.90;;;;;;5075680;28;20475;-93
2022/08/22 08:13:06;;;;;;;2.90;2.60;;;21.60;99.90;;;;;;5077367;28;20962;-94
2022/08/22 08:15:36;;;;;;;2.77;2.57;;;21.60;99.90;;;;;;5082977;28;20453;-93
2022/08/22 08:18:07;;;;;;;3.40;3.07;;;21.60;99.90;;;;;;5093313;28;20794;-94
2022/08/22 08:20:36;;;;;;;3.80;3.40;;;21.70;99.90;;;;;;5073758;28;20466;-94
2022/08/22 08:23:06;;;;;;;4.07;3.20;;;21.70;99.90;;;;;;5073240;28;21055;-92
2022/08/22 08:25:36;;;;;;;4.20;3.10;;;21.70;99.90;;;;;;5073710;28;20540;-93
2022/08/22 08:30:58;;;;;;;3.73;3.43;;;21.70;99.90;;;;;;5096488;28;20499;-95
2022/08/22 08:33:28;;;;;;;3.53;2.93;;;21.80;99.90;;;;;;5102870;28;20507;-93
2022/08/22 08:36:11;;;;;;;4.53;3.17;;;21.80;99.90;;;;;;5076234;28;20452;-94
2022/08/22 08:38:54;;;;;;;4.00;3.13;;;21.80;99.90;;;;;;5076659;28;20517;-93
2022/08/22 08:41:34;;;;;;;6.83;5.07;;;21.80;99.90;;;;;;5077820;28;20431;-94
2022/08/22 08:44:09;;;;;;;5.40;3.47;;;21.80;99.90;;;;;;5075733;28;20806;-94
2022/08/22 08:46:53;;;;;;;4.77;3.30;;;21.90;99.90;;;;;;5078556;28;20925;-94
2022/08/22 08:49:53;;;;;;;3.87;3.13;;;21.90;99.90;;;;;;5094637;28;20465;-94
2022/08/22 08:52:48;;;;;;;9.40;4.00;;;21.90;99.90;;;;;;5066304;28;20457;-92
2022/08/22 08:55:41;;;;;;;4.30;3.17;;;21.90;99.90;;;;;;5067262;28;20813;-94
2022/08/22 08:58:44;;;;;;;3.40;2.93;;;21.90;99.90;;;;;;5064563;28;20991;-95
2022/08/22 09:01:55;;;;;;;3.57;2.83;;;21.90;99.90;;;;;;5079602;28;20869;-95
2022/08/22 09:04:29;;;;;;;3.40;2.83;;;21.90;99.90;;;;;;5032620;28;21135;-94
2022/08/22 09:07:07;;;;;;;3.67;3.33;;;21.90;99.90;;;;;;5070096;28;20824;-95
2022/08/22 09:10:09;;;;;;;5.33;3.53;;;21.90;99.90;;;;;;5070789;28;20461;-93
2022/08/22 09:12:35;;;;;;;4.27;3.30;;;21.90;99.90;;;;;;5074576;28;20433;-93
2022/08/22 09:15:04;;;;;;;4.13;3.53;;;21.90;99.90;;;;;;5075046;28;20984;-94
2022/08/22 09:17:45;;;;;;;3.43;3.10;;;22.00;99.90;;;;;;5073437;28;20215;-94
2022/08/22 09:20:16;;;;;;;4.50;3.80;;;22.00;99.90;;;;;;5089410;28;20456;-93
2022/08/22 09:23:25;;;;;;;3.47;3.10;;;22.00;99.90;;;;;;5090307;28;20536;-94
2022/08/22 09:26:04;;;;;;;3.80;3.33;;;22.00;99.90;;;;;;5074500;28;20526;-96
2022/08/22 09:28:52;;;;;;;3.50;2.60;;;22.10;99.90;;;;;;5078309;28;20451;-95
2022/08/22 09:31:50;;;;;;;4.57;3.40;;;22.10;99.90;;;;;;5080098;28;20484;-93
2022/08/22 09:34:34;;;;;;;3.97;3.13;;;22.10;99.90;;;;;;5075897;28;20464;-95
2022/08/22 09:37:20;;;;;;;4.50;3.30;;;22.10;99.90;;;;;;5090554;28;20436;-95
2022/08/22 09:40:07;;;;;;;4.30;3.87;;;22.20;99.90;;;;;;5075245;28;20460;-95
2022/08/22 09:43:20;;;;;;;3.53;3.23;;;22.20;99.90;;;;;;5076911;28;21125;-94
2022/08/22 09:46:20;;;;;;;3.93;3.20;;;22.10;99.90;;;;;;5031575;28;20578;-94
2022/08/22 09:48:45;;;;;;;3.60;3.10;;;22.10;99.90;;;;;;5032443;28;21060;-94
2022/08/22 09:51:18;;;;;;;6.40;3.83;;;22.10;99.90;;;;;;5046387;28;20474;-94
2022/08/22 09:54:09;;;;;;;4.33;3.37;;;22.10;99.90;;;;;;5050690;28;20252;-94
2022/08/22 09:56:59;;;;;;;5.17;4.20;;;22.10;99.90;;;;;;5058369;28;20510;-94
2022/08/22 09:59:41;;;;;;;3.47;3.10;;;22.10;99.90;;;;;;5065199;28;20533;-95
2022/08/22 10:02:23;;;;;;;3.80;3.43;;;22.10;99.90;;;;;;5051137;28;20501;-94
2022/08/22 10:05:06;;;;;;;5.03;3.53;;;22.10;99.90;;;;;;5077023;28;20469;-94
2022/08/22 10:07:44;;;;;;;5.67;3.90;;;22.10;99.90;;;;;;5058712;28;20477;-93
2022/08/22 10:10:38;;;;;;;3.87;3.20;;;22.10;99.90;;;;;;5053328;28;20467;-93
2022/08/22 10:13:26;;;;;;;3.90;3.47;;;22.10;99.90;;;;;;5022496;28;20436;-94
2022/08/22 10:16:01;;;;;;;4.27;3.50;;;22.10;99.90;;;;;;5059431;28;20801;-93
2022/08/22 10:18:59;;;;;;;5.47;4.03;;;22.10;99.90;;;;;;5055866;28;20449;-94
2022/08/22 10:21:47;;;;;;;3.80;3.33;;;22.10;99.90;;;;;;5055609;28;20430;-95
2022/08/22 10:24:21;;;;;;;4.37;3.97;;;22.20;99.90;;;;;;5050712;28;20462;-94
2022/08/22 10:26:53;;;;;;;4.63;4.13;;;22.20;99.90;;;;;;5054652;28;20510;-94
2022/08/22 10:29:35;;;;;;;4.17;3.77;;;22.20;99.90;;;;;;5055334;28;20443;-95
2022/08/22 10:32:27;;;;;;;4.13;3.60;;;22.20;99.90;;;;;;5064197;28;20430;-93
2022/08/22 10:35:01;;;;;;;4.00;3.60;;;22.30;99.90;;;;;;5071564;28;20511;-94
2022/08/22 10:38:06;;;;;;;3.97;3.13;;;22.30;99.90;;;;;;5078042;28;20425;-94
2022/08/22 10:40:38;;;;;;;4.47;3.90;;;22.30;99.90;;;;;;5061238;28;20441;-94
2022/08/22 10:43:19;;;;;;;4.27;3.87;;;22.30;99.90;;;;;;5055068;28;20794;-94
2022/08/22 10:45:51;;;;;;;5.87;4.63;;;22.30;99.90;;;;;;5057704;28;20802;-93
2022/08/22 10:48:39;;;;;;;5.83;4.40;;;22.40;99.90;;;;;;5054762;28;20449;-93
2022/08/22 10:51:21;;;;;;;4.63;4.23;;;22.40;99.90;;;;;;5074308;28;20468;-92
2022/08/22 10:53:59;;;;;;;4.40;4.00;;;22.40;99.90;;;;;;5070083;28;20444;-93
2022/08/22 10:56:43;;;;;;;4.93;4.43;;;22.40;99.90;;;;;;5094228;28;20527;-93
2022/08/22 10:59:34;;;;;;;5.30;4.30;;;22.40;99.90;;;;;;5078085;28;20759;-94
2022/08/22 11:02:35;;;;;;;5.40;4.47;;;22.40;99.90;;;;;;5079594;28;20959;-91
2022/08/22 11:05:21;;;;;;;4.37;3.77;;;22.40;99.90;;;;;;5078018;28;20437;-94
2022/08/22 11:08:18;;;;;;;6.27;4.30;;;22.40;99.90;;;;;;5080418;28;20439;-93
2022/08/22 11:10:44;;;;;;;4.43;4.03;;;22.50;99.90;;;;;;5080092;28;20468;-91
2022/08/22 11:13:41;;;;;;;6.67;4.57;;;22.50;99.90;;;;;;5079911;28;20520;-93
2022/08/22 11:16:45;;;;;;;4.93;4.40;;;22.60;99.90;;;;;;5083369;28;20212;-94
2022/08/22 11:19:11;;;;;;;3.93;3.53;;;22.60;99.90;;;;;;5096622;28;20468;-95
2022/08/22 11:21:59;;;;;;;4.33;3.77;;;22.60;99.90;;;;;;5080706;28;20518;-96
2022/08/22 11:24:48;;;;;;;4.13;3.07;;;22.70;99.90;;;;;;5082961;28;20217;-95
2022/08/22 11:27:25;;;;;;;4.70;4.23;;;22.70;99.90;;;;;;5077504;28;20799;-94
2022/08/22 11:30:16;;;;;;;3.33;3.03;;;22.70;99.90;;;;;;5077909;28;20488;-95
2022/08/22 11:32:57;;;;;;;4.10;3.70;;;22.70;99.90;;;;;;5076371;28;20444;-94
2022/08/22 11:35:30;;;;;;;4.67;3.77;;;22.80;99.90;;;;;;5079471;28;20457;-94
2022/08/22 11:38:20;;;;;;;3.93;3.53;;;22.80;99.90;;;;;;5060557;28;20440;-95
2022/08/22 11:41:03;;;;;;;4.20;3.80;;;22.80;99.90;;;;;;5096456;28;20913;-95
2022/08/22 11:43:47;;;;;;;4.50;3.87;;;22.90;99.90;;;;;;5093786;28;20437;-94
2022/08/22 11:46:43;;;;;;;3.90;3.50;;;22.80;99.90;;;;;;5078619;28;20472;-95
2022/08/22 11:49:20;;;;;;;6.93;4.50;;;22.80;99.90;;;;;;5088324;28;20473;-95
2022/08/22 11:52:05;;;;;;;3.77;3.47;;;22.80;99.90;;;;;;5078801;28;20981;-94
2022/08/22 11:54:59;;;;;;;4.10;3.30;;;22.80;99.90;;;;;;5077995;28;20511;-94
2022/08/22 11:57:36;;;;;;;3.80;3.50;;;22.80;99.90;;;;;;5075436;28;20496;-94
2022/08/22 12:00:14;;;;;;;4.20;3.80;;;22.80;99.90;;;;;;5073924;28;20457;-94
2022/08/22 12:03:01;;;;;;;4.30;3.73;;;22.90;99.90;;;;;;5073671;28;20451;-96
2022/08/22 12:05:34;;;;;;;3.67;3.37;;;22.80;99.90;;;;;;5089764;28;20457;-94
2022/08/22 12:08:12;;;;;;;3.57;3.27;;;22.90;99.90;;;;;;5076872;28;20435;-94
2022/08/22 12:10:58;;;;;;;4.83;4.17;;;22.90;99.90;;;;;;5078804;28;20506;-94
2022/08/22 12:13:35;;;;;;;6.37;4.60;;;22.90;99.90;;;;;;5079847;28;20798;-94
2022/08/22 12:16:10;;;;;;;4.20;3.67;;;22.90;99.90;;;;;;5083941;28;22016;-95
2022/08/22 12:18:36;;;;;;;3.80;3.50;;;22.90;99.90;;;;;;5093936;28;20429;-96
2022/08/22 12:21:01;;;;;;;3.97;3.57;;;22.90;99.90;;;;;;5078306;28;20453;-94
2022/08/22 12:23:59;;;;;;;4.40;4.00;;;22.90;99.90;;;;;;5078265;28;20181;-94
2022/08/22 12:26:46;;;;;;;5.43;4.80;;;22.90;99.90;;;;;;5031710;28;20199;-94
2022/08/22 12:29:29;;;;;;;5.63;4.87;;;22.90;99.90;;;;;;5079448;28;20463;-95
2022/08/22 12:32:32;;;;;;;5.17;4.67;;;22.90;99.90;;;;;;5074962;28;20801;-95
2022/08/22 12:35:17;;;;;;;4.63;4.10;;;22.90;99.90;;;;;;5084478;28;20465;-95
2022/08/22 12:38:01;;;;;;;7.33;4.53;;;22.90;99.90;;;;;;5078684;28;20433;-96
2022/08/22 12:40:34;;;;;;;4.83;4.43;;;22.90;99.90;;;;;;5079292;28;20458;-95
2022/08/22 12:43:32;;;;;;;7.80;4.20;;;22.90;99.90;;;;;;5073922;28;20954;-95
2022/08/22 12:46:30;;;;;;;5.47;4.27;;;22.90;99.90;;;;;;5074258;28;20460;-92
2022/08/22 12:49:08;;;;;;;5.53;4.93;;;23.00;99.90;;;;;;5080796;28;20473;-95
2022/08/22 12:52:12;;;;;;;4.10;3.80;;;23.00;99.90;;;;;;5077333;28;20469;-95
2022/08/22 12:55:03;;;;;;;7.03;4.40;;;23.10;99.90;;;;;;5093610;28;20459;-92
2022/08/22 12:57:45;;;;;;;4.70;3.60;;;23.10;99.90;;;;;;5037621;28;20788;-92
2022/08/22 13:00:39;;;;;;;4.27;3.90;;;23.20;99.90;;;;;;5066172;28;20453;-93
2022/08/22 13:03:16;;;;;;;4.30;3.90;;;23.30;99.90;;;;;;5076075;28;20453;-91
2022/08/22 13:05:46;;;;;;;4.33;3.90;;;23.30;99.90;;;;;;5080445;28;20493;-92
2022/08/22 13:08:20;;;;;;;4.90;4.50;;;23.30;99.90;;;;;;5076567;28;20469;-91
2022/08/22 13:11:00;;;;;;;4.73;4.33;;;23.30;99.90;;;;;;5079685;28;20591;-91
2022/08/22 13:13:36;;;;;;;4.57;4.17;;;23.30;99.90;;;;;;5075208;28;20429;-91
2022/08/22 13:16:07;;;;;;;4.93;4.53;;;23.30;99.90;;;;;;5075611;28;20465;-94
2022/08/22 13:18:47;;;;;;;6.13;4.10;;;23.30;99.90;;;;;;5090013;28;20429;-95
2022/08/22 13:21:15;;;;;;;9.03;4.27;;;23.30;99.90;;;;;;5091201;28;20450;-95
2022/08/22 13:23:50;;;;;;;4.70;4.30;;;23.40;99.90;;;;;;5073035;28;20432;-95
2022/08/22 13:26:22;;;;;;;4.53;4.13;;;23.40;99.90;;;;;;5069534;28;20485;-95
2022/08/22 13:28:56;;;;;;;5.30;4.80;;;23.40;99.90;;;;;;5078155;28;20980;-95
2022/08/22 13:31:31;;;;;;;6.70;5.20;;;23.50;99.90;;;;;;5076081;28;20477;-94
2022/08/22 13:34:03;;;;;;;5.60;5.10;;;23.50;99.90;;;;;;5083095;28;20450;-95
2022/08/22 13:36:32;;;;;;;6.70;5.20;;;23.50;99.90;;;;;;5100449;28;20425;-95
2022/08/22 13:39:06;;;;;;;6.20;5.60;;;23.50;99.90;;;;;;5073676;28;20443;-94
2022/08/22 13:41:39;;;;;;;6.30;5.67;;;23.50;99.90;;;;;;5081819;28;20426;-94
2022/08/22 13:44:08;;;;;;;6.43;5.83;;;23.50;99.90;;;;;;5077686;28;20441;-93
2022/08/22 13:46:55;;;;;;;6.43;5.80;;;23.40;99.90;;;;;;5069788;28;20457;-94
2022/08/22 13:49:44;;;;;;;5.73;5.13;;;23.40;99.90;;;;;;5061648;28;20474;-95
2022/08/22 13:52:41;;;;;;;5.20;4.70;;;23.40;99.90;;;;;;5069173;28;20636;-94
2022/08/22 13:55:29;;;;;;;5.37;4.87;;;23.40;99.90;;;;;;5067175;28;21114;-95
2022/08/22 13:58:19;;;;;;;5.13;4.63;;;23.40;99.90;;;;;;5068069;28;20436;-93
2022/08/22 14:01:32;;;;;;;5.10;4.60;;;23.40;99.90;;;;;;5070821;28;20963;-95
2022/08/22 14:04:11;;;;;;;5.40;4.90;;;23.50;99.90;;;;;;5021567;28;20458;-93
2022/08/22 14:07:04;;;;;;;6.00;5.37;;;23.50;99.90;;;;;;5071112;28;20547;-95
2022/08/22 14:09:48;;;;;;;5.80;5.30;;;23.50;99.90;;;;;;5078149;28;20466;-94